Time;durP1;ratioP1;P1;durP2;ratioP2;P2;SDS_P1;SDS_P2;PMS_P1;PMS_P2;Temp;Humidity;BMP_temperature;BMP_pressure;BME280_temperature;BME280_humidity;BME280_pressure;Samples;Min_cycle;Max_cycle;Signal;HPM_P1;HPM_P2
2023/05/02 00:00:10;;;;;;;13.17;10.70;;;;;;;8.01;100.00;101039.72;687316;28;1193;-76
2023/05/02 00:00:35;;;;;;;13.82;11.15;;;;;;;8.00;100.00;101018.88;687280;28;2494;-76
2023/05/02 00:00:55;;;;;;;13.70;11.05;;;;;;;7.98;100.00;101021.47;685543;28;4402;-76
2023/05/02 00:01:16;;;;;;;13.80;11.60;;;;;;;7.98;100.00;101031.03;686232;28;1153;-75
2023/05/02 00:01:37;;;;;;;14.18;11.40;;;;;;;7.95;100.00;101031.00;686996;28;1186;-76
2023/05/02 00:02:00;;;;;;;13.35;11.02;;;;;;;7.95;100.00;101028.41;688950;28;1091;-76
2023/05/02 00:02:20;;;;;;;13.27;11.13;;;;;;;7.95;100.00;101024.06;689213;28;1508;-75
2023/05/02 00:02:42;;;;;;;12.88;10.68;;;;;;;7.98;100.00;101024.09;686915;28;1224;-75
2023/05/02 00:03:04;;;;;;;13.40;10.75;;;;;;;7.99;100.00;101041.47;681441;28;1446;-76
2023/05/02 00:03:25;;;;;;;13.90;11.10;;;;;;;7.98;100.00;101020.63;680599;28;2570;-76
2023/05/02 00:03:48;;;;;;;12.98;11.00;;;;;;;8.02;100.00;101051.91;684607;28;4338;-76
2023/05/02 00:04:09;;;;;;;13.13;10.90;;;;;;;7.97;100.00;101042.28;684689;28;1229;-75
2023/05/02 00:04:29;;;;;;;14.35;11.20;;;;;;;7.96;100.00;101018.00;687400;28;2449;-76
2023/05/02 00:04:50;;;;;;;13.98;11.57;;;;;;;7.95;100.00;101024.06;689081;28;1202;-76
2023/05/02 00:05:10;;;;;;;14.37;11.60;;;;;;;7.94;100.00;101022.31;685918;28;1253;-76
2023/05/02 00:05:31;;;;;;;13.75;11.15;;;;;;;7.96;100.00;101050.94;685683;28;1207;-76
2023/05/02 00:05:54;;;;;;;13.23;11.15;;;;;;;7.96;100.00;101041.44;684598;28;2519;-76
2023/05/02 00:06:15;;;;;;;14.00;11.80;;;;;;;7.95;100.00;101013.63;687738;28;1394;-75
2023/05/02 00:06:36;;;;;;;14.40;11.68;;;;;;;7.94;100.00;101037.06;684043;28;1293;-76
2023/05/02 00:07:00;;;;;;;13.82;11.23;;;;;;;7.93;100.00;101040.50;682860;28;4315;-76
2023/05/02 00:07:20;;;;;;;13.95;10.80;;;;;;;7.94;100.00;101011.03;682145;28;1304;-75
2023/05/02 00:07:44;;;;;;;12.75;10.55;;;;;;;7.95;100.00;101041.41;683538;28;1922;-75
2023/05/02 00:08:05;;;;;;;13.18;10.98;;;;;;;7.91;100.00;101019.66;683250;28;871;-76
2023/05/02 00:08:28;;;;;;;13.38;10.88;;;;;;;7.93;100.00;101057.00;686002;28;805;-75
2023/05/02 00:08:52;;;;;;;13.90;11.20;;;;;;;7.94;100.00;101016.22;686010;28;1033;-76
2023/05/02 00:09:16;;;;;;;15.45;11.63;;;;;;;7.92;100.00;101017.94;685178;28;1514;-76
2023/05/02 00:09:49;;;;;;;14.43;11.52;;;;;;;7.90;100.00;101019.66;684623;28;1285;-75
2023/05/02 00:10:12;;;;;;;13.93;11.43;;;;;;;7.86;100.00;101026.53;683868;28;4740;-76
2023/05/02 00:10:34;;;;;;;13.88;11.35;;;;;;;7.88;100.00;101052.59;686459;28;793;-76
2023/05/02 00:10:54;;;;;;;13.80;11.15;;;;;;;7.82;100.00;101049.06;683796;28;1304;-75
2023/05/02 00:11:18;;;;;;;12.98;11.23;;;;;;;7.80;100.00;101019.53;682100;28;1130;-75
2023/05/02 00:11:43;;;;;;;13.07;11.65;;;;;;;7.81;100.00;101028.22;685117;28;936;-75
2023/05/02 00:12:04;;;;;;;13.05;10.95;;;;;;;7.85;100.00;101032.63;684707;28;1233;-75
2023/05/02 00:12:25;;;;;;;12.93;10.70;;;;;;;7.84;100.00;101052.56;683391;28;2380;-76
2023/05/02 00:12:46;;;;;;;13.32;11.13;;;;;;;7.83;100.00;101037.78;685950;28;4383;-76
2023/05/02 00:13:12;;;;;;;13.60;10.93;;;;;;;7.84;100.00;101039.53;683925;28;1302;-76
2023/05/02 00:13:33;;;;;;;13.88;11.40;;;;;;;7.84;100.00;101060.38;685312;28;873;-76
2023/05/02 00:13:53;;;;;;;13.03;10.90;;;;;;;7.84;100.00;101034.34;685235;28;1185;-75
2023/05/02 00:14:14;;;;;;;13.07;10.50;;;;;;;7.85;100.00;101032.63;681994;28;1111;-76
2023/05/02 00:14:35;;;;;;;12.73;10.82;;;;;;;7.86;100.00;101028.28;683752;28;1387;-76
2023/05/02 00:15:03;;;;;;;13.77;10.80;;;;;;;7.86;100.00;101023.06;684614;28;1400;-76
2023/05/02 00:15:26;;;;;;;13.20;10.90;;;;;;;7.80;100.00;101048.16;689473;28;1458;-76
2023/05/02 00:15:47;;;;;;;13.52;11.05;;;;;;;7.80;100.00;101055.97;687366;28;4315;-76
2023/05/02 00:16:11;;;;;;;13.32;11.18;;;;;;;7.78;100.00;101046.38;687978;28;1226;-76
2023/05/02 00:16:31;;;;;;;13.05;10.90;;;;;;;7.81;100.00;101034.31;690305;28;3222;-75
2023/05/02 00:16:54;;;;;;;13.00;10.67;;;;;;;7.76;100.00;101025.56;686055;28;923;-75
2023/05/02 00:17:18;;;;;;;14.48;11.20;;;;;;;7.78;100.00;101033.38;684039;28;1275;-76
2023/05/02 00:17:41;;;;;;;13.35;10.75;;;;;;;7.77;100.00;101042.06;685179;28;1305;-75
2023/05/02 00:18:07;;;;;;;13.32;11.05;;;;;;;7.77;100.00;101036.84;683834;28;1405;-75
2023/05/02 00:18:28;;;;;;;14.25;11.02;;;;;;;7.78;100.00;101034.28;689725;28;1336;-76
2023/05/02 00:18:49;;;;;;;14.23;11.07;;;;;;;7.76;100.00;101028.16;684305;28;4611;-76
2023/05/02 00:19:12;;;;;;;12.93;10.77;;;;;;;7.72;100.00;101030.72;681962;28;2286;-76
2023/05/02 00:19:41;;;;;;;13.38;10.77;;;;;;;7.71;100.00;101029.81;684635;28;993;-76
2023/05/02 00:20:03;;;;;;;13.48;10.70;;;;;;;7.74;100.00;101032.47;683127;28;996;-76
2023/05/02 00:20:27;;;;;;;12.50;10.27;;;;;;;7.71;100.00;101024.59;686690;28;1398;-76
2023/05/02 00:20:49;;;;;;;13.45;10.95;;;;;;;7.70;100.00;101040.22;685057;28;1309;-75
2023/05/02 00:21:10;;;;;;;16.10;10.48;;;;;;;7.72;100.00;101026.38;681169;28;1335;-75
2023/05/02 00:21:31;;;;;;;12.52;10.30;;;;;;;7.70;100.00;101043.72;687285;28;1496;-76
2023/05/02 00:21:55;;;;;;;12.23;10.32;;;;;;;7.73;100.00;101038.53;685741;28;4379;-76
2023/05/02 00:22:16;;;;;;;12.38;10.30;;;;;;;7.73;100.00;101033.34;689122;28;1103;-75
2023/05/02 00:22:43;;;;;;;12.45;10.70;;;;;;;7.74;100.00;101045.50;686038;28;1424;-76
2023/05/02 00:23:07;;;;;;;13.30;10.73;;;;;;;7.72;100.00;101051.53;680601;28;1425;-75
2023/05/02 00:23:28;;;;;;;11.85;10.50;;;;;;;7.74;100.00;101055.91;684278;28;1523;-75
2023/05/02 00:23:50;;;;;;;12.20;10.57;;;;;;;7.73;100.00;101032.47;683529;28;782;-76
2023/05/02 00:24:11;;;;;;;13.15;10.27;;;;;;;7.73;100.00;101074.97;681001;28;1364;-75
2023/05/02 00:24:32;;;;;;;12.10;10.03;;;;;;;7.72;100.00;101065.41;682405;28;962;-75
2023/05/02 00:24:56;;;;;;;12.57;10.23;;;;;;;7.69;100.00;101052.34;681771;28;4425;-76
2023/05/02 00:25:17;;;;;;;12.70;10.57;;;;;;;7.66;100.00;101029.75;685186;28;1080;-76
2023/05/02 00:25:49;;;;;;;13.05;10.30;;;;;;;7.65;100.00;101027.16;684715;28;1141;-75
2023/05/02 00:26:09;;;;;;;12.55;10.45;;;;;;;7.63;100.00;101052.28;683085;28;1118;-75
2023/05/02 00:26:34;;;;;;;11.93;10.20;;;;;;;7.64;100.00;101028.88;685140;28;1523;-76
2023/05/02 00:26:55;;;;;;;11.73;10.35;;;;;;;7.65;100.00;101058.38;684631;28;1244;-75
2023/05/02 00:27:19;;;;;;;12.82;10.98;;;;;;;7.64;100.00;101035.81;681248;28;1229;-76
2023/05/02 00:27:40;;;;;;;13.55;10.80;;;;;;;7.61;100.00;101033.16;684858;28;1914;-75
2023/05/02 00:28:01;;;;;;;12.73;10.63;;;;;;;7.61;100.00;101053.97;683655;28;4334;-76
2023/05/02 00:28:28;;;;;;;13.15;10.80;;;;;;;7.59;100.00;101030.56;684605;28;1520;-76
2023/05/02 00:28:51;;;;;;;12.45;10.13;;;;;;;7.59;100.00;101030.56;686887;28;1608;-76
2023/05/02 00:29:14;;;;;;;12.87;10.30;;;;;;;7.59;100.00;101053.09;683978;28;1161;-75
2023/05/02 00:29:35;;;;;;;13.02;10.68;;;;;;;7.57;100.00;101037.44;683388;28;1253;-75
2023/05/02 00:30:00;;;;;;;12.07;10.13;;;;;;;7.59;100.00;101029.69;683367;28;1020;-76
2023/05/02 00:30:20;;;;;;;13.00;10.52;;;;;;;7.57;100.00;101037.44;686064;28;1404;-75
2023/05/02 00:30:43;;;;;;;13.45;10.80;;;;;;;7.58;100.00;101028.78;681284;29;1500;-75
2023/05/02 00:31:04;;;;;;;13.38;10.82;;;;;;;7.57;100.00;101037.44;682622;28;4604;-76
2023/05/02 00:31:27;;;;;;;13.55;10.18;;;;;;;7.59;100.00;101033.16;684147;28;3207;-75
2023/05/02 00:31:50;;;;;;;13.45;10.20;;;;;;;7.59;100.00;101037.50;683050;28;1403;-75
2023/05/02 00:32:11;;;;;;;11.45;9.73;;;;;;;7.53;100.00;101045.19;680244;28;1158;-76
2023/05/02 00:32:32;;;;;;;13.60;10.48;;;;;;;7.51;100.00;101071.19;681582;29;1321;-75
2023/05/02 00:32:55;;;;;;;13.47;10.87;;;;;;;7.53;100.00;101035.66;685140;28;1254;-76
2023/05/02 00:33:21;;;;;;;13.00;10.40;;;;;;;7.52;100.00;101053.84;686215;28;1251;-76
2023/05/02 00:33:45;;;;;;;12.75;10.63;;;;;;;7.50;100.00;101052.13;690309;28;1121;-75
2023/05/02 00:34:05;;;;;;;12.23;9.88;;;;;;;7.53;100.00;101046.06;684719;28;4916;-75
2023/05/02 00:34:34;;;;;;;11.90;9.77;;;;;;;7.49;100.00;101046.88;684963;28;2631;-76
2023/05/02 00:35:03;;;;;;;13.40;10.20;;;;;;;7.53;100.00;101063.41;687376;28;889;-75
2023/05/02 00:35:23;;;;;;;11.93;10.05;;;;;;;7.54;100.00;101065.16;686585;28;1427;-75
2023/05/02 00:35:44;;;;;;;11.73;9.80;;;;;;;7.51;100.00;101060.78;687477;28;1098;-75
2023/05/02 00:36:13;;;;;;;12.07;9.70;;;;;;;7.50;100.00;101036.50;683280;28;1327;-76
2023/05/02 00:36:33;;;;;;;12.07;9.80;;;;;;;7.49;100.00;101042.56;682139;28;1322;-75
2023/05/02 00:36:54;;;;;;;11.95;10.05;;;;;;;7.51;100.00;101079.00;683606;28;4760;-75
2023/05/02 00:37:15;;;;;;;11.80;10.27;;;;;;;7.52;100.00;101038.22;684601;28;1030;-75
2023/05/02 00:37:38;;;;;;;13.63;10.27;;;;;;;7.48;100.00;101066.81;687062;28;845;-76
2023/05/02 00:38:12;;;;;;;12.63;10.10;;;;;;;7.49;100.00;101044.25;683250;28;1063;-75
2023/05/02 00:38:36;;;;;;;12.57;10.30;;;;;;;7.44;100.00;101043.34;689889;28;2622;-76
2023/05/02 00:39:05;;;;;;;12.95;10.20;;;;;;;7.42;100.00;101058.94;687277;28;5551;-76
2023/05/02 00:39:26;;;;;;;13.80;10.45;;;;;;;7.40;100.00;101041.56;687090;28;1000;-75
2023/05/02 00:39:49;;;;;;;11.85;9.57;;;;;;;7.41;100.00;101044.19;686466;28;4284;-75
2023/05/02 00:40:11;;;;;;;12.63;9.68;;;;;;;7.44;100.00;101056.34;680006;28;1254;-76
2023/05/02 00:40:44;;;;;;;12.35;10.10;;;;;;;7.46;100.00;101050.31;678109;29;1322;-76
2023/05/02 00:41:05;;;;;;;12.52;9.95;;;;;;;7.45;100.00;101076.31;678215;29;1503;-75
2023/05/02 00:41:33;;;;;;;12.75;10.13;;;;;;;7.46;100.00;101049.44;681371;29;1207;-76
2023/05/02 00:42:00;;;;;;;12.48;9.82;;;;;;;7.45;100.00;101074.59;683880;28;1265;-76
2023/05/02 00:42:31;;;;;;;12.75;10.50;;;;;;;7.45;100.00;101064.19;683575;28;1313;-76
2023/05/02 00:42:52;;;;;;;12.95;10.02;;;;;;;7.44;100.00;101046.81;671199;28;4559;-76
2023/05/02 00:43:14;;;;;;;13.23;10.10;;;;;;;7.45;100.00;101053.78;677853;29;910;-74
2023/05/02 00:43:40;;;;;;;12.15;10.10;;;;;;;7.45;100.00;101052.91;679719;29;1291;-76
2023/05/02 00:44:07;;;;;;;13.13;10.18;;;;;;;7.44;100.00;101088.44;677805;29;1199;-75
2023/05/02 00:44:31;;;;;;;12.73;10.05;;;;;;;7.43;100.00;101052.84;682694;28;1081;-76
2023/05/02 00:44:54;;;;;;;13.38;10.38;;;;;;;7.41;100.00;101049.38;684581;28;1197;-75
2023/05/02 00:45:15;;;;;;;12.88;10.40;;;;;;;7.43;100.00;101097.09;686081;28;2596;-76
2023/05/02 00:45:39;;;;;;;12.15;9.73;;;;;;;7.42;100.00;101087.56;690001;28;1271;-75
2023/05/02 00:46:03;;;;;;;12.35;10.13;;;;;;;7.46;100.00;101050.31;687634;28;4300;-75
2023/05/02 00:46:24;;;;;;;12.75;9.98;;;;;;;7.45;100.00;101071.13;684678;28;1444;-75
2023/05/02 00:46:45;;;;;;;13.65;9.80;;;;;;;7.44;100.00;101052.00;691304;28;1261;-76
2023/05/02 00:47:06;;;;;;;12.85;10.20;;;;;;;7.41;100.00;101067.59;685938;28;1705;-76
2023/05/02 00:47:29;;;;;;;12.40;10.10;;;;;;;7.40;100.00;101078.84;687766;28;1431;-75
2023/05/02 00:47:50;;;;;;;13.23;10.32;;;;;;;7.41;100.00;101072.78;681448;29;1926;-75
2023/05/02 00:48:12;;;;;;;13.07;10.23;;;;;;;7.43;100.00;101086.69;681040;28;1149;-75
2023/05/02 00:48:33;;;;;;;12.10;10.23;;;;;;;7.41;100.00;101078.00;682267;29;1325;-76
2023/05/02 00:48:57;;;;;;;12.35;9.98;;;;;;;7.42;100.00;101100.56;675159;28;5076;-75
2023/05/02 00:49:18;;;;;;;12.63;9.98;;;;;;;7.39;100.00;101077.06;682658;28;2259;-75
2023/05/02 00:49:39;;;;;;;13.02;10.27;;;;;;;7.39;100.00;101058.00;684130;28;1245;-76
2023/05/02 00:50:09;;;;;;;13.80;10.40;;;;;;;7.43;100.00;101065.88;685258;28;1203;-75
2023/05/02 00:50:33;;;;;;;14.02;10.70;;;;;;;7.41;100.00;101091.00;688777;28;1437;-75
2023/05/02 00:50:56;;;;;;;13.07;10.90;;;;;;;7.42;100.00;101056.34;690093;28;1488;-76
2023/05/02 00:51:19;;;;;;;13.77;10.87;;;;;;;7.43;100.00;101065.00;691479;28;1201;-75
2023/05/02 00:51:43;;;;;;;13.60;10.60;;;;;;;7.44;100.00;101066.75;687537;28;2463;-75
2023/05/02 00:52:05;;;;;;;13.50;10.18;;;;;;;7.43;100.00;101083.22;685393;28;4799;-76
2023/05/02 00:52:25;;;;;;;12.50;10.27;;;;;;;7.43;100.00;101060.66;688694;28;1518;-75
2023/05/02 00:52:47;;;;;;;12.77;10.77;;;;;;;7.44;100.00;101096.25;687188;28;1232;-76
2023/05/02 00:53:09;;;;;;;13.55;11.13;;;;;;;7.42;100.00;101090.16;682172;28;1327;-76
2023/05/02 00:53:30;;;;;;;13.35;10.73;;;;;;;7.43;100.00;101075.41;687396;28;1286;-75
2023/05/02 00:53:52;;;;;;;13.30;10.38;;;;;;;7.46;100.00;101065.94;686096;28;1205;-75
2023/05/02 00:54:13;;;;;;;13.73;10.48;;;;;;;7.44;100.00;101077.16;681636;28;1314;-75
2023/05/02 00:54:38;;;;;;;14.18;10.43;;;;;;;7.46;100.00;101065.94;681930;29;2601;-75
2023/05/02 00:55:08;;;;;;;13.15;10.23;;;;;;;7.45;100.00;101105.81;683865;28;4991;-76
2023/05/02 00:55:46;;;;;;;12.70;10.32;;;;;;;7.46;100.00;101070.25;688042;28;1285;-75
2023/05/02 00:56:10;;;;;;;14.52;11.07;;;;;;;7.46;100.00;101083.25;684046;28;1369;-75
2023/05/02 00:56:34;;;;;;;15.20;10.85;;;;;;;7.46;100.00;101096.25;686100;28;1009;-75
2023/05/02 00:56:58;;;;;;;14.05;10.63;;;;;;;7.47;100.00;101101.47;686811;28;1417;-75
2023/05/02 00:57:18;;;;;;;13.98;11.30;;;;;;;7.47;100.00;101098.00;681641;28;2232;-76
2023/05/02 00:57:41;;;;;;;14.63;11.20;;;;;;;7.45;100.00;101087.59;683220;28;1064;-75
2023/05/02 00:58:06;;;;;;;15.75;11.73;;;;;;;7.45;100.00;101058.97;683169;28;4269;-76
2023/05/02 00:58:30;;;;;;;13.90;11.15;;;;;;;7.50;100.00;101072.94;686308;28;1244;-76
2023/05/02 00:58:51;;;;;;;16.48;11.25;;;;;;;7.54;100.00;101092.03;687705;28;886;-76
2023/05/02 00:59:15;;;;;;;14.48;11.07;;;;;;;7.51;100.00;101058.19;684746;28;1249;-76
2023/05/02 00:59:36;;;;;;;13.60;10.93;;;;;;;7.53;100.00;101064.28;683442;28;1075;-76
2023/05/02 01:00:09;;;;;;;13.55;11.07;;;;;;;7.55;100.00;101079.94;682228;28;2675;-76
2023/05/02 01:00:46;;;;;;;17.15;12.25;;;;;;;7.58;100.00;101092.97;683748;28;1514;-76
2023/05/02 01:01:31;;;;;;;13.25;11.20;;;;;;;7.60;100.00;101062.63;670952;28;4985;-76
2023/05/02 01:02:18;;;;;;;14.15;11.60;;;;;;;7.67;100.00;101067.09;681669;28;1371;-76
2023/05/02 01:02:57;;;;;;;13.20;11.25;;;;;;;7.64;100.00;101061.81;685065;28;1334;-76
2023/05/02 01:03:44;;;;;;;15.10;12.07;;;;;;;7.64;100.00;101069.63;684929;28;1300;-75
2023/05/02 01:04:21;;;;;;;14.98;11.40;;;;;;;7.63;100.00;101073.97;678646;28;4699;-75
2023/05/02 01:05:03;;;;;;;15.63;12.05;;;;;;;7.65;100.00;101056.63;684026;28;1261;-75
2023/05/02 01:05:35;;;;;;;15.23;11.48;;;;;;;7.64;100.00;101067.03;684878;28;825;-75
2023/05/02 01:06:30;;;;;;;14.27;11.13;;;;;;;7.65;100.00;101074.84;686270;28;1270;-75
2023/05/02 01:07:31;;;;;;;15.07;12.00;;;;;;;7.68;100.00;101068.81;686225;28;4406;-75
2023/05/02 01:08:04;;;;;;;14.95;11.88;;;;;;;7.66;100.00;101068.81;685838;28;1969;-75
2023/05/02 01:08:37;;;;;;;14.25;11.70;;;;;;;7.66;100.00;101074.00;688385;28;1307;-75
2023/05/02 01:09:37;;;;;;;14.38;11.57;;;;;;;7.67;100.00;101072.31;688447;28;1264;-75
2023/05/02 01:10:13;;;;;;;16.25;11.95;;;;;;;7.66;100.00;101075.75;680439;28;4316;-75
2023/05/02 01:10:47;;;;;;;15.15;11.30;;;;;;;7.69;100.00;101067.97;675163;29;986;-75
2023/05/02 01:11:17;;;;;;;15.18;12.02;;;;;;;7.71;100.00;101073.19;676697;29;1356;-75
2023/05/02 01:11:51;;;;;;;14.85;12.13;;;;;;;7.72;100.00;101072.34;679687;29;1269;-75
2023/05/02 01:12:39;;;;;;;15.35;11.77;;;;;;;7.73;100.00;101074.97;677282;29;1323;-76
2023/05/02 01:13:11;;;;;;;16.05;12.18;;;;;;;7.73;100.00;101076.72;679561;28;4299;-75
2023/05/02 01:13:34;;;;;;;16.27;12.27;;;;;;;7.73;100.00;101072.38;674237;29;1120;-75
2023/05/02 01:14:01;;;;;;;15.73;12.35;;;;;;;7.73;100.00;101090.59;675994;29;872;-76
2023/05/02 01:14:24;;;;;;;15.80;12.60;;;;;;;7.73;100.00;101084.53;672370;29;1361;-76
2023/05/02 01:14:56;;;;;;;16.95;12.93;;;;;;;7.72;100.00;101087.97;675116;29;1403;-76
2023/05/02 01:15:42;;;;;;;17.50;12.65;;;;;;;7.73;100.00;101090.59;671177;29;2358;-76
2023/05/02 01:16:09;;;;;;;18.50;13.60;;;;;;;7.76;100.00;101110.56;669975;28;4351;-75
2023/05/02 01:16:52;;;;;;;18.40;13.63;;;;;;;7.74;100.00;101100.16;686401;28;1359;-76
2023/05/02 01:17:15;;;;;;;16.63;12.27;;;;;;;7.81;100.00;101072.47;685507;28;1701;-75
2023/05/02 01:17:38;;;;;;;17.65;13.30;;;;;;;7.81;100.00;101075.09;683855;28;1380;-75
2023/05/02 01:18:01;;;;;;;19.33;13.98;;;;;;;7.79;100.00;101080.25;688140;28;1286;-74
2023/05/02 01:18:35;;;;;;;19.30;14.65;;;;;;;7.82;100.00;101076.81;688249;28;1245;-75
2023/05/02 01:18:58;;;;;;;19.95;14.43;;;;;;;7.79;100.00;101090.66;688449;28;4294;-74
2023/05/02 01:19:28;;;;;;;21.65;15.63;;;;;;;7.80;100.00;101113.22;678663;28;2064;-75
2023/05/02 01:20:01;;;;;;;18.48;14.48;;;;;;;7.80;100.00;101107.16;680866;28;1338;-75
2023/05/02 01:20:26;;;;;;;20.77;14.48;;;;;;;7.79;100.00;101101.06;681298;29;1459;-75
2023/05/02 01:20:54;;;;;;;19.23;14.40;;;;;;;7.79;100.00;101080.25;682722;28;1453;-75
2023/05/02 01:21:15;;;;;;;22.35;15.63;;;;;;;7.78;100.00;101077.63;680533;29;1428;-75
2023/05/02 01:21:38;;;;;;;21.25;15.30;;;;;;;7.79;100.00;101093.25;687302;28;1375;-75
2023/05/02 01:22:05;;;;;;;22.27;15.32;;;;;;;7.78;100.00;101075.03;677920;28;4333;-75
2023/05/02 01:22:28;;;;;;;20.80;15.32;;;;;;;7.79;100.00;101079.38;689183;28;1357;-75
2023/05/02 01:22:51;;;;;;;21.55;15.18;;;;;;;7.77;100.00;101076.75;683814;28;1473;-75
2023/05/02 01:23:22;;;;;;;20.95;15.05;;;;;;;7.80;100.00;101104.56;684524;28;1382;-76
2023/05/02 01:24:02;;;;;;;21.08;14.90;;;;;;;7.80;100.00;101079.41;683002;28;1494;-76
2023/05/02 01:25:04;;;;;;;20.27;14.80;;;;;;;7.79;100.00;101093.25;686884;28;2440;-75
2023/05/02 01:25:40;;;;;;;20.42;15.57;;;;;;;7.78;100.00;101082.81;690896;28;4784;-76
2023/05/02 01:26:09;;;;;;;21.38;15.30;;;;;;;7.78;100.00;101077.63;691194;28;1326;-76
2023/05/02 01:27:08;;;;;;;21.05;14.90;;;;;;;7.78;100.00;101083.72;689789;28;890;-76
2023/05/02 01:28:03;;;;;;;20.65;15.05;;;;;;;7.79;100.00;101090.66;678417;29;1509;-75
2023/05/02 01:28:30;;;;;;;19.00;14.60;;;;;;;7.79;100.00;101090.66;678894;29;6272;-75
2023/05/02 01:29:07;;;;;;;20.45;14.73;;;;;;;7.80;100.00;101087.19;678167;29;1308;-75
2023/05/02 01:29:29;;;;;;;19.95;14.90;;;;;;;7.79;100.00;101089.78;682024;29;1340;-75
2023/05/02 01:29:52;;;;;;;20.70;15.52;;;;;;;7.80;100.00;101100.22;680408;29;2537;-75
2023/05/02 01:30:15;;;;;;;20.45;15.13;;;;;;;7.78;100.00;101088.03;681124;28;1270;-75
2023/05/02 01:30:41;;;;;;;20.48;14.82;;;;;;;7.78;100.00;101098.44;686145;28;1305;-75
2023/05/02 01:31:04;;;;;;;20.17;14.75;;;;;;;7.78;100.00;101091.53;686999;28;4275;-76
2023/05/02 01:31:27;;;;;;;20.40;14.88;;;;;;;7.80;100.00;101089.81;690279;28;1427;-76
2023/05/02 01:31:49;;;;;;;20.65;15.38;;;;;;;7.81;100.00;101088.09;688476;28;1280;-76
2023/05/02 01:32:13;;;;;;;21.65;15.45;;;;;;;7.82;100.00;101090.72;690497;28;1102;-75
2023/05/02 01:32:38;;;;;;;22.10;15.43;;;;;;;7.82;100.00;101090.72;692428;28;1481;-75
2023/05/02 01:33:04;;;;;;;19.85;14.98;;;;;;;7.81;100.00;101104.56;690098;28;1273;-75
2023/05/02 01:33:29;;;;;;;21.17;15.43;;;;;;;7.81;100.00;101094.16;683878;28;887;-76
2023/05/02 01:33:51;;;;;;;20.85;15.32;;;;;;;7.81;100.00;101106.31;684029;28;4297;-76
2023/05/02 01:34:11;;;;;;;22.00;14.93;;;;;;;7.79;100.00;101119.28;681771;28;1534;-76
2023/05/02 01:34:37;;;;;;;24.20;16.02;;;;;;;7.78;100.00;101098.44;681445;29;2352;-75
2023/05/02 01:35:00;;;;;;;22.65;15.75;;;;;;;7.78;100.00;101104.53;684014;28;1337;-76
2023/05/02 01:35:25;;;;;;;21.40;15.10;;;;;;;7.80;100.00;101108.03;688036;28;1286;-75
2023/05/02 01:35:50;;;;;;;21.63;15.88;;;;;;;7.81;100.00;101099.38;689208;28;1272;-75
2023/05/02 01:36:17;;;;;;;23.23;16.13;;;;;;;7.79;100.00;101105.41;688967;28;903;-75
2023/05/02 01:36:47;;;;;;;22.60;16.08;;;;;;;7.78;100.00;101096.75;690554;28;901;-76
2023/05/02 01:37:11;;;;;;;22.40;15.75;;;;;;;7.79;100.00;101090.66;690590;28;4951;-75
2023/05/02 01:37:33;;;;;;;23.02;15.88;;;;;;;7.80;100.00;101108.03;695210;28;1310;-76
2023/05/02 01:37:56;;;;;;;24.33;16.88;;;;;;;7.79;100.00;101111.47;693013;28;1204;-75
2023/05/02 01:38:21;;;;;;;21.33;15.68;;;;;;;7.81;100.00;101130.59;684343;28;1358;-76
2023/05/02 01:38:46;;;;;;;21.92;16.10;;;;;;;7.81;100.00;101103.72;682784;28;1276;-75
2023/05/02 01:39:09;;;;;;;23.52;16.80;;;;;;;7.79;100.00;101101.06;687790;28;1454;-75
2023/05/02 01:39:31;;;;;;;23.92;16.30;;;;;;;7.80;100.00;101100.22;692472;28;1318;-75
2023/05/02 01:39:55;;;;;;;22.95;16.23;;;;;;;7.79;100.00;101131.44;688195;28;4329;-76
2023/05/02 01:40:19;;;;;;;22.45;15.93;;;;;;;7.79;100.00;101095.84;690524;28;1453;-76
2023/05/02 01:40:43;;;;;;;22.55;16.67;;;;;;;7.79;100.00;101115.81;688877;28;1206;-76
2023/05/02 01:41:06;;;;;;;23.25;16.92;;;;;;;7.80;100.00;101100.22;685214;28;1406;-76
2023/05/02 01:41:29;;;;;;;23.52;16.92;;;;;;;7.82;100.00;101113.25;687281;28;1516;-75
2023/05/02 01:41:52;;;;;;;23.58;16.63;;;;;;;7.81;100.00;101094.16;686528;28;1283;-75
2023/05/02 01:42:15;;;;;;;24.27;16.67;;;;;;;7.83;100.00;101123.69;685641;28;963;-75
2023/05/02 01:42:37;;;;;;;22.23;15.48;;;;;;;7.83;100.00;101120.22;686055;28;2364;-75
2023/05/02 01:43:02;;;;;;;22.88;15.73;;;;;;;7.83;100.00;101095.03;682117;28;4368;-75
2023/05/02 01:43:25;;;;;;;22.65;16.02;;;;;;;7.83;100.00;101100.25;685934;28;1488;-75
2023/05/02 01:43:47;;;;;;;21.55;15.52;;;;;;;7.87;100.00;101102.91;686556;28;1476;-76
2023/05/02 01:44:09;;;;;;;22.73;15.65;;;;;;;7.89;100.00;101101.19;688419;28;1320;-76
2023/05/02 01:44:33;;;;;;;21.65;15.07;;;;;;;7.90;100.00;101100.34;686394;28;1557;-76
2023/05/02 01:44:58;;;;;;;22.13;15.70;;;;;;;7.90;100.00;101092.53;683775;28;1308;-75
2023/05/02 01:45:22;;;;;;;19.90;15.30;;;;;;;7.92;100.00;101096.03;682640;28;2449;-75
2023/05/02 01:45:46;;;;;;;19.92;14.40;;;;;;;7.87;100.00;101097.72;687365;28;1279;-76
2023/05/02 01:46:09;;;;;;;19.35;14.15;;;;;;;7.90;100.00;101102.94;684944;28;4789;-76
2023/05/02 01:46:37;;;;;;;21.30;15.02;;;;;;;7.91;100.00;101115.13;683982;28;1209;-75
2023/05/02 01:47:06;;;;;;;20.67;14.93;;;;;;;7.91;100.00;101125.53;684068;28;941;-75
2023/05/02 01:47:32;;;;;;;22.23;16.08;;;;;;;7.94;100.00;101141.19;683998;28;964;-75
2023/05/02 01:47:54;;;;;;;20.00;14.90;;;;;;;7.97;100.00;101123.00;687100;28;1970;-75
2023/05/02 01:48:17;;;;;;;20.40;15.35;;;;;;;7.95;100.00;101101.28;687288;28;1384;-76
2023/05/02 01:48:42;;;;;;;19.92;15.05;;;;;;;7.95;100.00;101103.91;690296;28;1299;-75
2023/05/02 01:49:05;;;;;;;21.00;14.93;;;;;;;7.95;100.00;101101.28;682315;28;4432;-75
2023/05/02 01:49:26;;;;;;;28.70;15.07;;;;;;;7.95;100.00;101112.56;690082;28;1290;-76
2023/05/02 01:49:47;;;;;;;19.17;14.23;;;;;;;7.98;100.00;101112.59;684908;28;781;-75
2023/05/02 01:50:12;;;;;;;21.25;14.65;;;;;;;7.98;100.00;101143.84;686128;28;1201;-74
2023/05/02 01:50:41;;;;;;;20.58;14.82;;;;;;;7.93;100.00;101119.47;689848;28;917;-75
2023/05/02 01:51:04;;;;;;;19.58;14.27;;;;;;;7.94;100.00;101109.94;685296;28;956;-76
2023/05/02 01:51:31;;;;;;;20.70;14.82;;;;;;;7.92;100.00;101127.25;687534;28;836;-76
2023/05/02 01:51:52;;;;;;;20.92;15.07;;;;;;;7.91;100.00;101110.78;684972;28;4305;-75
2023/05/02 01:52:20;;;;;;;20.17;14.70;;;;;;;7.89;100.00;101109.00;683164;28;1287;-75
2023/05/02 01:52:46;;;;;;;19.17;14.18;;;;;;;7.91;100.00;101126.41;685364;28;1323;-76
2023/05/02 01:53:10;;;;;;;21.60;15.02;;;;;;;7.93;100.00;101110.78;684463;28;1011;-75
2023/05/02 01:53:36;;;;;;;19.40;14.60;;;;;;;7.90;100.00;101135.06;686639;28;940;-75
2023/05/02 01:54:00;;;;;;;18.35;13.73;;;;;;;7.91;100.00;101104.72;684442;28;1261;-75
2023/05/02 01:54:25;;;;;;;18.77;13.52;;;;;;;7.93;100.00;101129.03;680353;28;2317;-75
2023/05/02 01:54:54;;;;;;;19.88;13.77;;;;;;;7.89;100.00;101128.13;682569;28;4377;-76
2023/05/02 01:55:16;;;;;;;21.10;15.18;;;;;;;7.90;100.00;101110.75;683156;28;1407;-75
2023/05/02 01:55:38;;;;;;;20.02;14.65;;;;;;;7.88;100.00;101102.03;687442;28;1277;-76
2023/05/02 01:56:09;;;;;;;19.48;14.25;;;;;;;7.89;100.00;101101.19;688268;28;1372;-75
2023/05/02 01:56:32;;;;;;;20.30;14.05;;;;;;;7.90;100.00;101115.97;687100;28;1574;-76
2023/05/02 01:56:58;;;;;;;23.35;15.15;;;;;;;7.89;100.00;101111.59;687573;28;1734;-76
2023/05/02 01:57:24;;;;;;;20.10;14.85;;;;;;;7.90;100.00;101150.69;685164;28;1302;-75
2023/05/02 01:58:00;;;;;;;20.40;14.77;;;;;;;7.90;100.00;101127.25;673388;28;4822;-75
2023/05/02 01:58:22;;;;;;;22.98;15.52;;;;;;;7.94;100.00;101143.78;683267;28;1402;-75
2023/05/02 01:58:47;;;;;;;23.58;16.77;;;;;;;7.95;100.00;101120.38;685400;28;867;-75
2023/05/02 01:59:12;;;;;;;27.73;18.70;;;;;;;7.96;100.00;101131.66;680214;28;1426;-76
2023/05/02 01:59:34;;;;;;;30.27;18.35;;;;;;;8.00;100.00;101117.81;684063;28;1339;-75